Time;durP1;ratioP1;P1;durP2;ratioP2;P2;SDS_P1;SDS_P2;PMS_P1;PMS_P2;Temp;Humidity;BMP_temperature;BMP_pressure;BME280_temperature;BME280_humidity;BME280_pressure;Samples;Min_cycle;Max_cycle;Signal;HPM_P1;HPM_P2
2022/06/25 00:01:19;;;;;;;15.07;13.70;;;17.90;99.90;;;;;;5079983;28;20153;-66
2022/06/25 00:03:45;;;;;;;16.17;14.40;;;17.80;99.90;;;;;;5080613;28;20166;-66
2022/06/25 00:06:11;;;;;;;15.30;13.68;;;17.80;99.90;;;;;;5081363;28;22113;-66
2022/06/25 00:08:38;;;;;;;21.08;14.75;;;17.80;99.90;;;;;;5080288;28;20044;-67
2022/06/25 00:11:05;;;;;;;18.50;16.67;;;17.80;99.90;;;;;;5083781;28;20036;-66
2022/06/25 00:13:31;;;;;;;20.98;16.30;;;17.80;99.90;;;;;;5083958;28;20059;-66
2022/06/25 00:15:58;;;;;;;17.45;15.82;;;17.80;99.90;;;;;;5082161;28;20036;-66
2022/06/25 00:18:25;;;;;;;20.73;18.58;;;17.80;99.90;;;;;;5080726;28;20071;-66
2022/06/25 00:20:51;;;;;;;21.20;18.13;;;17.80;99.90;;;;;;5081030;28;20135;-66
2022/06/25 00:23:18;;;;;;;24.25;19.08;;;17.80;99.90;;;;;;5080554;28;20897;-66
2022/06/25 00:25:43;;;;;;;22.25;18.13;;;17.70;99.90;;;;;;5078966;28;20051;-66
2022/06/25 00:28:09;;;;;;;20.45;18.35;;;17.80;99.90;;;;;;5079630;28;20044;-66
2022/06/25 00:30:37;;;;;;;24.05;21.42;;;17.70;99.90;;;;;;5079735;28;20043;-67
2022/06/25 00:33:03;;;;;;;21.83;19.48;;;17.70;99.90;;;;;;5079301;28;20101;-66
2022/06/25 00:35:29;;;;;;;36.47;20.75;;;17.70;99.90;;;;;;5077053;28;21338;-66
2022/06/25 00:37:56;;;;;;;21.77;19.77;;;17.70;99.90;;;;;;5079733;28;20574;-66
2022/06/25 00:40:21;;;;;;;23.65;21.17;;;17.80;99.90;;;;;;5077272;28;20397;-66
2022/06/25 00:42:52;;;;;;;23.63;21.05;;;17.80;99.90;;;;;;5080021;28;20047;-66
2022/06/25 00:45:18;;;;;;;23.35;20.83;;;17.80;99.90;;;;;;5080395;28;20040;-67
2022/06/25 00:47:43;;;;;;;24.65;22.08;;;17.80;99.90;;;;;;5078943;28;20051;-66
2022/06/25 00:50:09;;;;;;;23.38;21.05;;;17.80;99.90;;;;;;5076814;28;20058;-66
2022/06/25 00:52:40;;;;;;;23.20;20.45;;;17.70;99.90;;;;;;5061843;28;20075;-67
2022/06/25 00:55:13;;;;;;;24.17;20.92;;;17.70;99.90;;;;;;5079545;28;20047;-67
2022/06/25 00:57:42;;;;;;;23.48;20.83;;;17.70;99.90;;;;;;5082425;28;20074;-66
2022/06/25 01:00:11;;;;;;;27.35;23.05;;;17.70;99.90;;;;;;5080891;28;20047;-66
2022/06/25 01:02:40;;;;;;;27.52;23.02;;;17.70;99.90;;;;;;5080348;28;20098;-66
2022/06/25 01:05:08;;;;;;;24.90;21.67;;;17.70;99.90;;;;;;5078589;28;20158;-66
2022/06/25 01:07:38;;;;;;;27.67;24.95;;;17.70;99.90;;;;;;5077977;28;20067;-66
2022/06/25 01:10:09;;;;;;;24.65;22.05;;;17.70;99.90;;;;;;5077093;28;20104;-67
2022/06/25 01:12:35;;;;;;;25.30;22.65;;;17.70;99.90;;;;;;5078916;28;20047;-66
2022/06/25 01:15:08;;;;;;;27.40;23.30;;;17.60;99.90;;;;;;5078726;28;20054;-66
2022/06/25 01:17:36;;;;;;;25.02;22.52;;;17.60;99.90;;;;;;5079062;28;20078;-66
2022/06/25 01:20:04;;;;;;;26.17;23.40;;;17.60;99.90;;;;;;5077209;28;20497;-67
2022/06/25 01:22:32;;;;;;;25.85;22.67;;;17.60;99.90;;;;;;5081545;28;20412;-67
2022/06/25 01:24:58;;;;;;;32.38;22.02;;;17.60;99.90;;;;;;5078798;28;20044;-67
2022/06/25 01:27:24;;;;;;;23.45;20.02;;;17.60;99.90;;;;;;5077504;28;20048;-67
2022/06/25 01:29:49;;;;;;;22.75;20.20;;;17.50;99.90;;;;;;5078318;28;20055;-67
2022/06/25 01:32:15;;;;;;;23.73;20.42;;;17.50;99.90;;;;;;5078351;28;20051;-66
2022/06/25 01:34:43;;;;;;;26.13;22.67;;;17.50;99.90;;;;;;5078148;28;20048;-67
2022/06/25 01:37:08;;;;;;;22.92;20.65;;;17.50;99.90;;;;;;5079115;28;20470;-67
2022/06/25 01:39:34;;;;;;;25.60;21.65;;;17.50;99.90;;;;;;5078609;28;20052;-67
2022/06/25 01:42:00;;;;;;;24.05;20.92;;;17.40;99.90;;;;;;5078734;28;20041;-67
2022/06/25 01:44:29;;;;;;;30.38;22.75;;;17.40;99.90;;;;;;5083599;28;20039;-66
2022/06/25 01:46:56;;;;;;;24.73;22.05;;;17.40;99.90;;;;;;5079138;28;20040;-67
2022/06/25 01:49:22;;;;;;;26.83;23.08;;;17.40;99.90;;;;;;5081781;28;20505;-67
2022/06/25 01:51:48;;;;;;;24.90;22.33;;;17.40;99.90;;;;;;5083393;28;20143;-67
2022/06/25 01:54:14;;;;;;;26.77;23.90;;;17.30;99.90;;;;;;5079060;28;20063;-67
2022/06/25 01:56:39;;;;;;;27.13;24.25;;;17.30;99.90;;;;;;5076187;28;20568;-67
2022/06/25 01:59:06;;;;;;;25.98;22.45;;;17.30;99.90;;;;;;5079418;28;20097;-67
2022/06/25 02:01:34;;;;;;;28.58;25.50;;;17.30;99.90;;;;;;5077849;28;20085;-67
2022/06/25 02:03:59;;;;;;;28.20;21.17;;;17.20;99.90;;;;;;5078638;28;20086;-67
2022/06/25 02:06:27;;;;;;;25.60;22.95;;;17.30;99.90;;;;;;5073805;28;20200;-67
2022/06/25 02:08:53;;;;;;;;;;;17.20;99.90;;;;;;5079715;28;20040;-67
2022/06/25 02:11:23;;;;;;;29.35;22.02;;;17.20;99.90;;;;;;5081273;28;19927;-67
2022/06/25 02:13:49;;;;;;;32.70;22.10;;;17.10;99.90;;;;;;5083350;28;20120;-67
2022/06/25 02:16:15;;;;;;;24.30;21.67;;;17.10;99.90;;;;;;5077700;28;20485;-66
2022/06/25 02:18:40;;;;;;;30.42;23.23;;;17.10;99.90;;;;;;5078838;28;20051;-67
2022/06/25 02:21:06;;;;;;;24.88;21.95;;;17.00;99.90;;;;;;5077152;28;20036;-66
2022/06/25 02:23:32;;;;;;;29.75;26.13;;;16.90;99.90;;;;;;5078066;28;20057;-66
2022/06/25 02:25:57;;;;;;;29.60;25.17;;;16.90;99.90;;;;;;5076671;28;20044;-66
2022/06/25 02:28:23;;;;;;;32.78;23.85;;;16.90;99.90;;;;;;5078409;28;20101;-66
2022/06/25 02:30:49;;;;;;;25.40;22.90;;;16.80;99.90;;;;;;5077490;28;20071;-66
2022/06/25 02:33:15;;;;;;;26.25;22.55;;;16.80;99.90;;;;;;5076692;28;20036;-66
2022/06/25 02:35:42;;;;;;;35.58;24.70;;;16.80;99.90;;;;;;5078219;28;20040;-66
2022/06/25 02:38:09;;;;;;;30.02;23.58;;;16.80;99.90;;;;;;5075055;28;20037;-66
2022/06/25 02:40:35;;;;;;;26.90;23.87;;;16.70;99.90;;;;;;5078991;28;20136;-66
2022/06/25 02:43:01;;;;;;;24.70;22.17;;;16.70;99.90;;;;;;5078995;28;20127;-66
2022/06/25 02:45:27;;;;;;;29.13;23.27;;;16.70;99.90;;;;;;5080788;28;20514;-66
2022/06/25 02:47:56;;;;;;;23.60;21.08;;;16.70;99.90;;;;;;5081628;28;20048;-66
2022/06/25 02:50:23;;;;;;;24.15;21.58;;;16.60;99.90;;;;;;5082247;28;20059;-66
2022/06/25 02:52:48;;;;;;;27.15;22.63;;;16.60;99.90;;;;;;5080549;28;20174;-66
2022/06/25 02:55:14;;;;;;;27.27;22.50;;;16.60;99.90;;;;;;5081214;28;20032;-66
2022/06/25 03:00:25;;;;;;;36.47;26.48;;;16.60;99.90;;;;;;5082612;28;20630;-66
2022/06/25 03:02:51;;;;;;;30.20;25.90;;;16.50;99.90;;;;;;5081655;28;21632;-66
2022/06/25 03:05:16;;;;;;;33.80;27.45;;;16.50;99.90;;;;;;5079305;28;20119;-66
2022/06/25 03:07:42;;;;;;;35.85;29.65;;;16.50;99.90;;;;;;5081106;28;20063;-66
2022/06/25 03:10:08;;;;;;;38.20;29.75;;;16.60;99.90;;;;;;5081883;28;20044;-66
2022/06/25 03:12:35;;;;;;;35.88;30.88;;;16.60;99.90;;;;;;5079229;28;20058;-67
2022/06/25 03:15:00;;;;;;;34.35;29.88;;;16.60;99.90;;;;;;5082341;28;20048;-66
2022/06/25 03:17:27;;;;;;;40.58;32.42;;;16.60;99.90;;;;;;5083082;28;20507;-66
2022/06/25 03:19:53;;;;;;;32.75;28.50;;;16.60;99.90;;;;;;5082370;28;20048;-66
2022/06/25 03:22:18;;;;;;;40.22;33.25;;;16.60;99.90;;;;;;5079350;28;20032;-66
2022/06/25 03:24:44;;;;;;;39.10;32.50;;;16.60;99.90;;;;;;5082555;28;20040;-66
2022/06/25 03:27:09;;;;;;;40.90;32.47;;;16.60;99.90;;;;;;5080579;28;20672;-66
2022/06/25 03:29:35;;;;;;;42.67;32.72;;;16.60;99.90;;;;;;5081986;28;20531;-65
2022/06/25 03:32:01;;;;;;;42.28;31.90;;;16.60;99.90;;;;;;5079166;28;20123;-66
2022/06/25 03:34:26;;;;;;;36.30;30.35;;;16.60;99.90;;;;;;5079046;28;20032;-65
2022/06/25 03:36:52;;;;;;;36.72;30.45;;;16.60;99.90;;;;;;5081152;28;20040;-66
2022/06/25 03:39:18;;;;;;;39.53;31.48;;;16.60;99.90;;;;;;5081467;28;20068;-66
2022/06/25 03:41:43;;;;;;;36.53;29.35;;;16.60;99.90;;;;;;5079866;28;20414;-66
2022/06/25 03:44:10;;;;;;;38.25;30.65;;;16.60;99.90;;;;;;5083717;28;20042;-66
2022/06/25 03:46:38;;;;;;;39.60;29.85;;;16.70;99.90;;;;;;5080084;28;20044;-66
2022/06/25 03:49:05;;;;;;;34.97;28.13;;;16.70;99.90;;;;;;5082175;28;20040;-66
2022/06/25 03:51:31;;;;;;;33.25;28.92;;;16.70;99.90;;;;;;5081662;28;20437;-66
2022/06/25 03:53:57;;;;;;;31.00;27.38;;;16.70;99.90;;;;;;5083293;28;20040;-67
2022/06/25 03:56:22;;;;;;;34.70;28.40;;;16.70;99.90;;;;;;5081288;28;20048;-66
2022/06/25 03:58:48;;;;;;;31.90;26.20;;;16.70;99.90;;;;;;5080077;28;20036;-66
2022/06/25 04:01:14;;;;;;;36.97;30.33;;;16.80;99.90;;;;;;5081267;28;20071;-66
2022/06/25 04:03:41;;;;;;;33.88;29.27;;;16.80;99.90;;;;;;5080279;28;20032;-67
2022/06/25 04:06:07;;;;;;;30.63;25.70;;;16.80;99.90;;;;;;5080165;28;20455;-67
2022/06/25 04:08:33;;;;;;;35.92;27.63;;;16.90;99.90;;;;;;5080973;28;20076;-66
2022/06/25 04:10:59;;;;;;;35.10;27.17;;;16.90;99.90;;;;;;5077258;28;20260;-66
2022/06/25 04:13:25;;;;;;;35.90;28.67;;;17.00;99.90;;;;;;5078328;28;20040;-67
2022/06/25 04:15:51;;;;;;;32.67;26.13;;;17.00;99.90;;;;;;5080192;28;20465;-66
2022/06/25 04:18:17;;;;;;;37.58;27.35;;;17.00;99.90;;;;;;5080121;28;20036;-67
2022/06/25 04:20:43;;;;;;;31.20;27.20;;;17.10;99.90;;;;;;5080016;28;20051;-67
2022/06/25 04:23:10;;;;;;;32.90;27.48;;;17.20;99.90;;;;;;5078180;28;20040;-67
2022/06/25 04:25:36;;;;;;;28.80;25.25;;;17.20;99.90;;;;;;5078843;28;20544;-67
2022/06/25 04:30:46;;;;;;;35.33;28.40;;;17.20;99.90;;;;;;5078355;28;20075;-67
2022/06/25 04:33:18;;;;;;;31.67;27.08;;;17.20;99.90;;;;;;5079498;28;20135;-68
2022/06/25 04:35:44;;;;;;;34.28;26.98;;;17.20;99.90;;;;;;5078121;28;20055;-67
2022/06/25 04:38:10;;;;;;;28.83;25.75;;;17.20;99.90;;;;;;5082351;28;20036;-67
2022/06/25 04:40:35;;;;;;;38.35;27.67;;;17.20;99.90;;;;;;5082818;28;20040;-67
2022/06/25 04:43:01;;;;;;;34.78;24.83;;;17.20;99.90;;;;;;5080210;28;20040;-67
2022/06/25 04:45:27;;;;;;;33.08;25.05;;;17.30;99.90;;;;;;5079553;28;20124;-67
2022/06/25 04:47:58;;;;;;;29.48;25.63;;;17.30;99.90;;;;;;5077992;28;20497;-67
2022/06/25 04:50:24;;;;;;;35.65;26.42;;;17.30;99.90;;;;;;5057759;28;20046;-67
2022/06/25 04:52:49;;;;;;;30.02;24.35;;;17.30;99.90;;;;;;5079657;28;21007;-67
2022/06/25 04:55:15;;;;;;;33.13;25.20;;;17.30;99.90;;;;;;5080703;28;20039;-67
2022/06/25 04:57:41;;;;;;;31.50;25.60;;;17.30;99.90;;;;;;5065598;28;20058;-67
2022/06/25 05:00:07;;;;;;;32.28;25.33;;;17.30;99.90;;;;;;5081315;28;20412;-67
2022/06/25 05:02:33;;;;;;;29.55;26.25;;;17.40;99.90;;;;;;5081159;28;20071;-68
2022/06/25 05:04:58;;;;;;;27.73;24.67;;;17.40;99.90;;;;;;5077683;28;20166;-67
2022/06/25 05:07:24;;;;;;;28.02;22.85;;;17.40;99.90;;;;;;5075942;28;20044;-67
2022/06/25 05:09:50;;;;;;;31.08;23.27;;;17.50;99.90;;;;;;5077536;28;20393;-67
2022/06/25 05:13:11;;;;;;;27.33;23.08;;;17.50;99.90;;;;;;5081276;28;20477;-67
2022/06/25 05:15:01;;;;;;;25.42;22.25;;;17.50;99.90;;;;;;5075968;28;20064;-67
2022/06/25 05:17:29;;;;;;;49.13;24.10;;;17.50;99.90;;;;;;5079842;28;20417;-67
2022/06/25 05:19:55;;;;;;;27.17;21.33;;;17.60;99.90;;;;;;5075569;28;20044;-67
2022/06/25 05:22:23;;;;;;;28.75;21.95;;;17.60;99.90;;;;;;5079025;28;20044;-67
2022/06/25 05:24:49;;;;;;;26.08;22.20;;;17.60;99.90;;;;;;5079717;28;20105;-67
2022/06/25 05:27:14;;;;;;;29.90;23.15;;;17.60;99.90;;;;;;5082154;28;20060;-67
2022/06/25 05:29:40;;;;;;;25.60;21.52;;;17.70;99.90;;;;;;5080003;28;20489;-68
2022/06/25 05:32:06;;;;;;;27.38;22.48;;;17.70;99.90;;;;;;5076233;28;20044;-68
2022/06/25 05:34:32;;;;;;;29.77;22.75;;;17.70;99.90;;;;;;5078521;28;20101;-67
2022/06/25 05:36:57;;;;;;;22.98;20.58;;;17.80;99.90;;;;;;5079428;28;20064;-67
2022/06/25 05:39:23;;;;;;;29.55;21.23;;;17.80;99.90;;;;;;5078752;28;20048;-67
2022/06/25 05:41:49;;;;;;;24.25;21.75;;;17.80;99.90;;;;;;5061583;28;20036;-68
2022/06/25 05:44:15;;;;;;;26.20;20.52;;;18.00;99.90;;;;;;5080921;28;20048;-68
2022/06/25 05:46:40;;;;;;;22.85;20.02;;;18.10;99.90;;;;;;5080209;28;20040;-68
2022/06/25 05:49:06;;;;;;;22.48;20.08;;;18.20;99.90;;;;;;5080560;28;20040;-68
2022/06/25 05:51:31;;;;;;;25.30;19.92;;;18.40;99.90;;;;;;5078602;28;20069;-68
2022/06/25 05:53:57;;;;;;;20.92;18.10;;;18.60;99.90;;;;;;5088971;28;20051;-68
2022/06/25 05:56:23;;;;;;;20.70;18.55;;;18.80;99.90;;;;;;5085551;28;20475;-68
2022/06/25 05:58:48;;;;;;;19.65;17.50;;;18.80;99.90;;;;;;5081348;28;20159;-68
2022/06/25 06:01:14;;;;;;;18.30;16.10;;;18.90;99.90;;;;;;5087411;28;20078;-67
2022/06/25 06:03:40;;;;;;;20.80;15.98;;;19.00;99.90;;;;;;5078864;28;20052;-68
2022/06/25 06:06:05;;;;;;;22.42;16.98;;;19.10;99.90;;;;;;5086390;28;20102;-68
2022/06/25 06:08:31;;;;;;;22.33;15.77;;;19.30;99.90;;;;;;5080711;28;20489;-67
2022/06/25 06:10:57;;;;;;;19.60;16.60;;;19.30;99.90;;;;;;5080769;28;20070;-67
2022/06/25 06:13:22;;;;;;;18.50;16.55;;;19.40;99.90;;;;;;5079605;28;20448;-67
2022/06/25 06:15:48;;;;;;;23.30;18.40;;;19.50;99.90;;;;;;5078660;28;20921;-67
2022/06/25 06:18:14;;;;;;;16.98;15.38;;;19.60;99.90;;;;;;5079405;28;20066;-67
2022/06/25 06:20:39;;;;;;;21.38;16.13;;;19.70;99.90;;;;;;5080215;28;20040;-65
2022/06/25 06:23:05;;;;;;;15.98;14.27;;;19.80;99.90;;;;;;5078973;28;20085;-65
2022/06/25 06:25:31;;;;;;;15.30;13.60;;;19.90;99.90;;;;;;5044744;28;20127;-65
2022/06/25 06:27:56;;;;;;;18.42;13.80;;;20.00;99.90;;;;;;5079718;28;20044;-65
2022/06/25 06:30:22;;;;;;;15.68;12.98;;;20.10;99.90;;;;;;5079585;28;20051;-65
2022/06/25 06:32:48;;;;;;;27.98;13.68;;;20.30;99.90;;;;;;5078935;28;20040;-66
2022/06/25 06:35:14;;;;;;;14.63;13.18;;;20.40;99.90;;;;;;5082066;28;20047;-65
2022/06/25 06:37:39;;;;;;;15.70;13.00;;;20.60;99.90;;;;;;5081925;28;20048;-65
2022/06/25 06:40:06;;;;;;;18.13;13.18;;;20.80;99.90;;;;;;5074781;28;20170;-66
2022/06/25 06:42:32;;;;;;;18.70;13.77;;;20.90;99.90;;;;;;5079705;28;20040;-65
2022/06/25 06:44:59;;;;;;;13.18;11.85;;;21.00;99.90;;;;;;5082096;28;20046;-65
2022/06/25 06:47:25;;;;;;;14.98;11.35;;;21.20;99.90;;;;;;5079798;28;20392;-65
2022/06/25 06:49:51;;;;;;;16.45;11.88;;;21.40;99.90;;;;;;5078446;28;20051;-66
2022/06/25 06:52:16;;;;;;;13.05;11.30;;;21.60;99.90;;;;;;5077255;28;20113;-66
2022/06/25 06:54:42;;;;;;;12.23;11.02;;;21.90;99.90;;;;;;5084086;28;20032;-66
2022/06/25 06:57:08;;;;;;;18.88;11.55;;;22.10;99.90;;;;;;5087200;28;20543;-67
2022/06/25 06:59:33;;;;;;;11.80;10.68;;;22.40;99.90;;;;;;5078227;28;20040;-67
2022/06/25 07:01:59;;;;;;;15.55;10.13;;;22.60;99.90;;;;;;5077867;28;20051;-67
2022/06/25 07:04:25;;;;;;;11.80;10.43;;;22.80;99.90;;;;;;5075874;28;20036;-66
2022/06/25 07:06:50;;;;;;;9.77;8.55;;;22.90;99.90;;;;;;5060485;28;20059;-67
2022/06/25 07:09:17;;;;;;;13.90;9.60;;;23.00;99.90;;;;;;5074143;28;20101;-66
2022/06/25 07:11:43;;;;;;;10.07;8.82;;;23.20;99.90;;;;;;5076002;28;20051;-67
2022/06/25 07:14:08;;;;;;;12.70;9.10;;;23.50;99.90;;;;;;5078914;28;20040;-67
2022/06/25 07:16:35;;;;;;;9.90;8.65;;;23.80;99.90;;;;;;5079188;28;20075;-67
2022/06/25 07:19:02;;;;;;;14.43;9.57;;;24.00;99.90;;;;;;5081024;28;20509;-67
2022/06/25 07:21:28;;;;;;;15.02;8.20;;;24.10;99.90;;;;;;5083139;28;20046;-67
2022/06/25 07:23:54;;;;;;;10.65;7.35;;;24.20;99.90;;;;;;5081459;28;20036;-67
2022/06/25 07:26:21;;;;;;;20.52;7.55;;;24.30;99.90;;;;;;5073751;28;20649;-68
2022/06/25 07:28:47;;;;;;;8.18;7.15;;;24.60;99.90;;;;;;5079783;28;20643;-67
2022/06/25 07:31:13;;;;;;;9.45;7.47;;;24.80;99.90;;;;;;5086426;28;20051;-67
2022/06/25 07:33:39;;;;;;;11.65;8.32;;;25.00;99.90;;;;;;5087412;28;20066;-67
2022/06/25 07:36:05;;;;;;;9.15;7.80;;;25.00;99.90;;;;;;5083195;28;20684;-67
2022/06/25 07:38:31;;;;;;;8.43;7.72;;;25.10;99.90;;;;;;5087159;28;20044;-67
2022/06/25 07:40:56;;;;;;;13.32;7.57;;;25.10;99.90;;;;;;5084472;28;20071;-67
2022/06/25 07:43:22;;;;;;;11.35;7.57;;;25.40;99.90;;;;;;5084643;28;20036;-68
2022/06/25 07:45:49;;;;;;;9.13;7.20;;;25.60;99.90;;;;;;5079248;28;20540;-67
2022/06/25 07:48:14;;;;;;;9.20;6.68;;;25.60;99.90;;;;;;5085624;28;20059;-68
2022/06/25 07:53:25;;;;;;;10.98;7.75;;;25.70;99.90;;;;;;5086003;28;20055;-67
2022/06/25 07:55:50;;;;;;;7.70;6.95;;;25.70;99.90;;;;;;5077200;28;20149;-67
2022/06/25 07:58:16;;;;;;;8.88;6.60;;;25.80;99.90;;;;;;5084292;28;20125;-68
2022/06/25 08:00:42;;;;;;;7.88;6.90;;;25.80;99.90;;;;;;5085244;28;20116;-68
2022/06/25 08:03:08;;;;;;;8.80;5.93;;;25.90;99.90;;;;;;5082824;28;20032;-69
2022/06/25 08:05:34;;;;;;;38.17;6.70;;;26.10;99.90;;;;;;5084748;28;20492;-68
2022/06/25 08:08:00;;;;;;;10.75;6.15;;;26.40;99.90;;;;;;5086331;28;20052;-68
2022/06/25 08:10:25;;;;;;;8.13;7.30;;;26.40;99.90;;;;;;5085395;28;20044;-68
2022/06/25 08:12:51;;;;;;;7.38;5.75;;;26.60;99.90;;;;;;5084902;28;20063;-68
2022/06/25 08:15:19;;;;;;;7.78;5.95;;;26.60;99.90;;;;;;5079808;28;20032;-68
2022/06/25 08:17:46;;;;;;;8.90;5.78;;;26.60;99.90;;;;;;5085269;28;20052;-68
2022/06/25 08:20:12;;;;;;;9.23;5.45;;;26.50;99.90;;;;;;5074850;28;20555;-68
2022/06/25 08:22:38;;;;;;;5.70;4.90;;;26.40;99.90;;;;;;5087403;28;20053;-68
2022/06/25 08:25:05;;;;;;;6.63;4.10;;;26.20;99.90;;;;;;5087787;28;20496;-67
2022/06/25 08:27:31;;;;;;;6.13;5.60;;;26.10;99.90;;;;;;5083732;28;20074;-68
2022/06/25 08:29:58;;;;;;;9.77;6.10;;;26.20;99.90;;;;;;5089081;28;20052;-67
2022/06/25 08:32:23;;;;;;;6.00;5.47;;;26.20;99.90;;;;;;5089311;28;20274;-67
2022/06/25 08:34:49;;;;;;;7.03;5.28;;;26.20;99.90;;;;;;5086693;28;20047;-67
2022/06/25 08:37:15;;;;;;;17.50;6.63;;;26.00;99.90;;;;;;5087563;28;20044;-67
2022/06/25 08:39:40;;;;;;;7.28;5.85;;;25.70;99.90;;;;;;5088030;28;20057;-68
2022/06/25 08:42:06;;;;;;;8.73;5.55;;;25.60;99.90;;;;;;5087505;28;20086;-67
2022/06/25 08:44:33;;;;;;;6.57;5.28;;;25.70;99.90;;;;;;5065376;28;20178;-68
2022/06/25 08:46:59;;;;;;;6.88;6.20;;;25.60;99.90;;;;;;5083053;28;20153;-68
2022/06/25 08:49:28;;;;;;;7.90;6.20;;;25.70;99.90;;;;;;5062294;28;20094;-68
2022/06/25 08:51:57;;;;;;;17.85;6.68;;;25.60;99.90;;;;;;5087927;28;20039;-68
2022/06/25 08:54:24;;;;;;;7.43;6.70;;;25.70;99.90;;;;;;5082904;28;20054;-68
2022/06/25 08:56:50;;;;;;;7.80;7.13;;;25.60;99.90;;;;;;5087681;28;20064;-68
2022/06/25 08:59:17;;;;;;;13.57;7.18;;;25.40;99.90;;;;;;5086133;28;20043;-67
2022/06/25 09:01:43;;;;;;;10.57;6.55;;;25.40;99.90;;;;;;5085781;28;20082;-68
2022/06/25 09:04:09;;;;;;;11.20;7.63;;;25.40;99.90;;;;;;5066881;28;20473;-68
2022/06/25 09:06:34;;;;;;;7.05;6.45;;;25.60;99.90;;;;;;5086857;28;20119;-68
2022/06/25 09:09:11;;;;;;;8.93;7.47;;;25.60;99.90;;;;;;5085584;28;20044;-68
2022/06/25 09:11:58;;;;;;;11.90;7.00;;;25.60;99.90;;;;;;5062750;28;20063;-68
2022/06/25 09:14:27;;;;;;;8.70;5.78;;;25.60;96.30;;;;;;5078844;28;20113;-68
2022/06/25 09:17:05;;;;;;;6.25;5.65;;;25.60;99.90;;;;;;5078834;28;20097;-68
2022/06/25 09:19:43;;;;;;;5.68;5.10;;;25.70;99.90;;;;;;5086418;28;20633;-68
2022/06/25 09:22:12;;;;;;;8.23;5.80;;;25.60;99.90;;;;;;5081333;28;20509;-68
2022/06/25 09:24:55;;;;;;;8.73;6.15;;;25.50;99.90;;;;;;5084299;28;20036;-68
2022/06/25 09:27:38;;;;;;;8.02;6.07;;;25.30;99.90;;;;;;5087778;28;20417;-68
2022/06/25 09:30:16;;;;;;;11.55;6.18;;;25.20;99.90;;;;;;5076120;28;20356;-69
2022/06/25 09:32:43;;;;;;;;;;;25.10;99.90;;;;;;5078529;28;20040;-68
2022/06/25 09:35:10;;;;;;;6.60;6.10;;;25.00;99.90;;;;;;5083318;28;19924;-68
2022/06/25 09:37:36;;;;;;;7.25;5.70;;;25.10;99.90;;;;;;5085828;28;20513;-68
2022/06/25 09:40:02;;;;;;;15.32;6.53;;;25.10;99.90;;;;;;5086224;28;20032;-68
2022/06/25 09:42:33;;;;;;;5.72;4.80;;;25.10;99.90;;;;;;5079177;28;20546;-68
2022/06/25 09:45:06;;;;;;;7.82;7.05;;;25.20;99.90;;;;;;5080815;28;20144;-68
2022/06/25 09:47:42;;;;;;;8.18;7.43;;;25.20;99.90;;;;;;5085369;28;20055;-68
2022/06/25 09:50:14;;;;;;;8.10;7.22;;;25.20;99.90;;;;;;5076278;28;20130;-68
2022/06/25 09:52:51;;;;;;;9.15;7.18;;;25.20;99.90;;;;;;5082250;28;20500;-68
2022/06/25 09:55:17;;;;;;;8.80;6.13;;;25.20;99.90;;;;;;5082053;28;20059;-68
2022/06/25 09:57:43;;;;;;;8.75;7.47;;;25.30;99.90;;;;;;5073242;28;20044;-68
2022/06/25 10:00:10;;;;;;;10.18;7.88;;;25.30;99.90;;;;;;5074499;28;20044;-67
2022/06/25 10:02:36;;;;;;;10.60;8.15;;;25.20;99.90;;;;;;5080845;28;20698;-68
2022/06/25 10:05:04;;;;;;;10.38;7.60;;;25.20;99.90;;;;;;5079905;28;20048;-68
2022/06/25 10:10:21;;;;;;;6.38;5.78;;;25.20;99.90;;;;;;5085347;28;20063;-68
2022/06/25 10:12:48;;;;;;;16.90;8.48;;;25.10;99.90;;;;;;5083521;28;20048;-68
2022/06/25 10:15:19;;;;;;;10.00;7.28;;;25.10;99.90;;;;;;5084038;28;20129;-68
2022/06/25 10:17:48;;;;;;;8.90;6.90;;;25.10;99.90;;;;;;5084235;28;20079;-68
2022/06/25 10:20:16;;;;;;;9.13;7.18;;;25.10;99.90;;;;;;5082500;28;20055;-69
2022/06/25 10:22:43;;;;;;;10.68;6.72;;;25.20;99.90;;;;;;5086153;28;20044;-69
2022/06/25 10:25:11;;;;;;;;;;;25.40;99.90;;;;;;5082320;28;20048;-69
2022/06/25 10:27:45;;;;;;;9.80;8.20;;;25.50;99.90;;;;;;5084705;28;19920;-68
2022/06/25 10:30:12;;;;;;;6.88;6.28;;;25.50;99.90;;;;;;5084989;28;20123;-69
2022/06/25 10:32:49;;;;;;;8.48;6.15;;;25.60;99.90;;;;;;5086691;28;20109;-69
2022/06/25 10:35:36;;;;;;;7.82;6.68;;;25.70;99.90;;;;;;5077650;28;20506;-69
2022/06/25 10:38:16;;;;;;;9.63;6.53;;;25.80;99.90;;;;;;5084368;28;20100;-69
2022/06/25 10:42:58;;;;;;;6.13;4.90;;;25.90;99.90;;;;;;5077099;28;20041;-69
2022/06/25 10:43:54;;;;;;;8.48;5.50;;;25.80;99.90;;;;;;5076010;28;20097;-69
2022/06/25 10:46:23;;;;;;;9.35;5.32;;;25.80;99.90;;;;;;5081182;28;20044;-69
2022/06/25 10:49:07;;;;;;;6.63;4.53;;;26.00;90.60;;;;;;5081946;28;20586;-69
2022/06/25 10:51:39;;;;;;;6.50;5.10;;;26.20;95.40;;;;;;5084621;28;20050;-69
2022/06/25 10:54:06;;;;;;;6.15;4.70;;;26.20;94.40;;;;;;5082760;28;20041;-69
2022/06/25 10:56:43;;;;;;;5.75;5.25;;;26.40;93.50;;;;;;5077680;28;20032;-68
2022/06/25 10:59:08;;;;;;;6.37;4.23;;;26.50;92.80;;;;;;5065338;28;20056;-68
2022/06/25 11:01:34;;;;;;;8.98;5.32;;;26.30;88.80;;;;;;5086012;28;20286;-68
2022/06/25 11:04:03;;;;;;;5.43;4.93;;;26.10;87.60;;;;;;5082387;28;20048;-68
2022/06/25 11:06:34;;;;;;;12.07;5.47;;;26.20;91.70;;;;;;5085493;28;20051;-68
2022/06/25 11:09:08;;;;;;;5.88;5.32;;;26.30;91.30;;;;;;5084943;28;20055;-68
2022/06/25 11:11:34;;;;;;;5.57;5.13;;;26.40;89.80;;;;;;5083120;28;20044;-68
2022/06/25 11:14:02;;;;;;;7.10;5.00;;;26.50;91.30;;;;;;5090516;28;20040;-68
2022/06/25 11:16:28;;;;;;;;;;;26.50;89.80;;;;;;5083532;28;20489;-68
2022/06/25 11:18:58;;;;;;;3.97;3.63;;;26.40;90.20;;;;;;5088090;28;19924;-68
2022/06/25 11:21:26;;;;;;;7.03;4.50;;;26.50;86.80;;;;;;5071543;28;20105;-68
2022/06/25 11:23:52;;;;;;;3.85;3.65;;;26.60;90.80;;;;;;5084935;28;20090;-68
2022/06/25 11:29:02;;;;;;;5.22;4.20;;;26.70;91.90;;;;;;5086051;28;20063;-68
2022/06/25 11:31:28;;;;;;;7.55;3.90;;;26.60;92.50;;;;;;5088343;28;20049;-68
2022/06/25 11:33:54;;;;;;;4.88;4.40;;;26.60;90.90;;;;;;5086590;28;20133;-68
2022/06/25 11:36:20;;;;;;;6.88;5.05;;;26.70;90.60;;;;;;5082230;28;20115;-68
2022/06/25 11:38:55;;;;;;;6.95;4.22;;;26.70;91.00;;;;;;5089000;28;20040;-68
2022/06/25 11:41:27;;;;;;;5.10;4.60;;;26.60;78.80;;;;;;5071448;28;20408;-68
2022/06/25 11:43:53;;;;;;;6.35;5.13;;;26.50;87.40;;;;;;5089745;28;20117;-68
2022/06/25 11:46:19;;;;;;;5.88;4.93;;;26.50;90.00;;;;;;5087791;28;20032;-68
2022/06/25 11:48:50;;;;;;;9.38;5.07;;;26.70;91.50;;;;;;5057785;28;20766;-68
2022/06/25 11:51:24;;;;;;;6.57;4.72;;;27.00;84.80;;;;;;5088075;28;20044;-69
2022/06/25 11:53:50;;;;;;;6.50;4.10;;;27.00;81.60;;;;;;5085133;28;20611;-69
2022/06/25 11:56:16;;;;;;;5.30;4.75;;;27.00;82.40;;;;;;5088175;28;20043;-69
2022/06/25 11:58:44;;;;;;;5.22;3.83;;;27.30;80.90;;;;;;5079085;28;20044;-69
2022/06/25 12:01:09;;;;;;;5.72;5.05;;;27.30;77.50;;;;;;5082276;28;20497;-69
2022/06/25 12:03:35;;;;;;;8.45;4.75;;;27.20;78.00;;;;;;5079835;28;20143;-69
2022/06/25 12:06:03;;;;;;;17.80;4.95;;;27.10;77.60;;;;;;5083350;28;20052;-69
2022/06/25 12:08:29;;;;;;;6.43;4.32;;;27.10;77.10;;;;;;5088073;28;20566;-69
2022/06/25 12:10:57;;;;;;;4.88;3.50;;;27.20;77.70;;;;;;5089916;28;20131;-69
2022/06/25 12:13:27;;;;;;;3.97;3.65;;;27.40;78.50;;;;;;5082078;28;20041;-69
2022/06/25 12:16:11;;;;;;;4.85;4.45;;;27.50;74.70;;;;;;5079936;28;20548;-69
2022/06/25 12:18:42;;;;;;;6.32;4.65;;;27.40;71.20;;;;;;5080429;28;20047;-69
2022/06/25 12:21:09;;;;;;;8.55;4.40;;;27.40;70.60;;;;;;5084321;28;20044;-69
2022/06/25 12:23:50;;;;;;;7.30;4.25;;;27.40;70.10;;;;;;5089134;28;20048;-69
2022/06/25 12:26:52;;;;;;;5.38;3.28;;;27.40;67.40;;;;;;5084608;28;20040;-69
2022/06/25 12:29:20;;;;;;;5.55;3.88;;;27.30;68.80;;;;;;5061103;28;20055;-69
2022/06/25 12:31:54;;;;;;;4.88;4.25;;;27.30;74.60;;;;;;5088218;28;20028;-69
2022/06/25 12:34:20;;;;;;;5.53;3.72;;;27.10;73.90;;;;;;5084332;28;20052;-70
2022/06/25 12:36:49;;;;;;;6.57;4.35;;;27.00;76.10;;;;;;5076970;28;20036;-70
2022/06/25 12:39:34;;;;;;;5.30;4.45;;;26.90;76.00;;;;;;5088037;28;20059;-70
2022/06/25 12:42:09;;;;;;;5.40;4.30;;;26.80;76.70;;;;;;5079055;28;20040;-69
2022/06/25 12:44:39;;;;;;;5.55;4.18;;;26.60;80.40;;;;;;5085253;28;20047;-69
2022/06/25 12:47:10;;;;;;;8.68;4.38;;;26.50;81.50;;;;;;5046081;28;20062;-69
2022/06/25 12:49:54;;;;;;;4.97;4.47;;;26.40;86.70;;;;;;5079261;28;20517;-69
2022/06/25 12:52:36;;;;;;;5.30;4.03;;;26.30;87.60;;;;;;5067050;28;20044;-69